Time;durP1;ratioP1;P1;durP2;ratioP2;P2;SDS_P1;SDS_P2;PMS_P1;PMS_P2;Temp;Humidity;BMP_temperature;BMP_pressure;BME280_temperature;BME280_humidity;BME280_pressure;Samples;Min_cycle;Max_cycle;Signal;HPM_P1;HPM_P2
2021/03/10 00:01:00;;;;;;;52.60;24.35;;;6.70;99.40;;;;;;4822509;29;20023;-81
2021/03/10 00:03:25;;;;;;;52.42;24.88;;;6.70;99.40;;;;;;4822822;29;20038;-81
2021/03/10 00:05:51;;;;;;;55.40;25.15;;;6.80;99.30;;;;;;4808055;29;20032;-79
2021/03/10 00:08:17;;;;;;;48.08;22.48;;;6.80;99.20;;;;;;4822713;29;20068;-79
2021/03/10 00:10:42;;;;;;;49.47;22.75;;;6.60;99.40;;;;;;4822673;29;20046;-79
2021/03/10 00:13:08;;;;;;;51.15;23.35;;;6.40;99.50;;;;;;4822917;29;20074;-79
2021/03/10 00:15:34;;;;;;;50.10;21.90;;;6.70;99.70;;;;;;4822233;29;20497;-81
2021/03/10 00:18:00;;;;;;;49.05;21.90;;;6.70;99.50;;;;;;4824281;29;20034;-80
2021/03/10 00:20:26;;;;;;;50.90;22.25;;;6.70;99.60;;;;;;4822728;29;20138;-80
2021/03/10 00:22:51;;;;;;;52.38;24.05;;;6.60;99.60;;;;;;4806760;29;20423;-79
2021/03/10 00:25:18;;;;;;;53.33;24.83;;;6.60;99.70;;;;;;4822578;29;20077;-81
2021/03/10 00:27:44;;;;;;;53.97;23.63;;;6.50;99.60;;;;;;4806203;29;20114;-80
2021/03/10 00:30:11;;;;;;;56.75;25.65;;;6.60;99.60;;;;;;4805995;29;20038;-79
2021/03/10 00:32:37;;;;;;;62.35;27.88;;;6.60;99.70;;;;;;4824295;29;20387;-79
2021/03/10 00:35:05;;;;;;;50.58;24.38;;;6.60;99.60;;;;;;4822220;29;20046;-78
2021/03/10 00:37:30;;;;;;;53.75;25.60;;;6.50;99.60;;;;;;4822181;29;20042;-78
2021/03/10 00:39:56;;;;;;;62.05;26.13;;;6.50;99.60;;;;;;4805061;29;20038;-79
2021/03/10 00:42:22;;;;;;;52.63;24.27;;;6.50;99.70;;;;;;4822486;29;20022;-79
2021/03/10 00:44:47;;;;;;;57.08;24.35;;;6.60;99.70;;;;;;4823660;29;20038;-79
2021/03/10 00:47:14;;;;;;;58.80;25.08;;;6.70;99.90;;;;;;4822232;29;20420;-80
2021/03/10 00:49:41;;;;;;;52.17;23.85;;;6.70;99.70;;;;;;4821907;29;20046;-79
2021/03/10 00:52:07;;;;;;;55.08;25.23;;;6.50;99.70;;;;;;4822679;29;20031;-79
2021/03/10 00:54:34;;;;;;;62.33;26.10;;;6.60;99.70;;;;;;4805518;29;20187;-79
2021/03/10 00:56:59;;;;;;;68.30;28.70;;;6.50;99.70;;;;;;4823941;29;20633;-79
2021/03/10 00:59:25;;;;;;;63.25;26.20;;;6.60;99.70;;;;;;4822129;29;20050;-79
2021/03/10 01:01:51;;;;;;;71.75;26.92;;;6.60;99.70;;;;;;4821902;29;20034;-79
2021/03/10 01:04:16;;;;;;;66.85;28.42;;;6.50;99.70;;;;;;4822002;29;20135;-79
2021/03/10 01:06:42;;;;;;;58.30;26.45;;;6.50;99.50;;;;;;4822000;29;20067;-80
2021/03/10 01:09:08;;;;;;;59.60;25.63;;;6.60;99.70;;;;;;4821810;29;20121;-79
2021/03/10 01:11:35;;;;;;;60.30;27.17;;;6.70;99.70;;;;;;4823270;29;20030;-79
2021/03/10 01:14:01;;;;;;;53.47;24.85;;;6.70;99.40;;;;;;4805444;29;20049;-80
2021/03/10 01:16:28;;;;;;;63.53;26.77;;;6.70;99.30;;;;;;4821834;29;20035;-78
2021/03/10 01:18:54;;;;;;;52.05;25.70;;;6.80;99.30;;;;;;4821820;29;20418;-79
2021/03/10 01:21:20;;;;;;;58.75;26.90;;;6.80;99.40;;;;;;4821307;29;20061;-80
2021/03/10 01:23:46;;;;;;;53.45;24.58;;;6.70;99.40;;;;;;4823212;29;20033;-78
2021/03/10 01:26:11;;;;;;;58.67;25.65;;;6.80;99.40;;;;;;4821662;29;20042;-78
2021/03/10 01:28:37;;;;;;;59.78;26.63;;;6.70;99.30;;;;;;4821565;29;20067;-78
2021/03/10 01:31:02;;;;;;;54.10;25.35;;;6.70;99.50;;;;;;4805357;29;20053;-80
2021/03/10 01:33:28;;;;;;;60.80;26.45;;;6.60;99.40;;;;;;4821507;29;20122;-80
2021/03/10 01:35:54;;;;;;;56.25;25.23;;;6.60;99.40;;;;;;4823236;29;20042;-80
2021/03/10 01:38:20;;;;;;;57.25;26.13;;;6.60;99.40;;;;;;4821280;29;20408;-80
2021/03/10 01:40:45;;;;;;;54.67;25.90;;;6.60;99.50;;;;;;4821495;29;20046;-78
2021/03/10 01:43:11;;;;;;;53.67;25.25;;;6.70;99.40;;;;;;4821293;29;20380;-79
2021/03/10 01:45:37;;;;;;;53.80;26.40;;;6.80;99.20;;;;;;4821314;29;20098;-79
2021/03/10 01:48:08;;;;;;;51.78;24.70;;;6.80;99.10;;;;;;4822844;29;20478;-80
2021/03/10 01:50:35;;;;;;;53.10;23.17;;;6.80;99.00;;;;;;4821454;29;20396;-77
2021/03/10 01:53:01;;;;;;;55.20;24.38;;;6.70;99.20;;;;;;4821252;29;20080;-79
2021/03/10 01:55:27;;;;;;;55.40;26.52;;;6.70;99.30;;;;;;4821461;29;20043;-79
2021/03/10 01:57:52;;;;;;;53.67;24.85;;;6.80;99.40;;;;;;4821656;29;20053;-79
2021/03/10 02:00:19;;;;;;;54.03;25.15;;;6.90;99.20;;;;;;4821160;29;20026;-78
2021/03/10 02:02:45;;;;;;;50.03;24.40;;;6.90;99.00;;;;;;4823060;29;20030;-78
2021/03/10 02:05:20;;;;;;;53.75;25.52;;;6.90;98.90;;;;;;4820861;29;20055;-80
2021/03/10 02:08:10;;;;;;;49.97;23.58;;;6.90;99.00;;;;;;4820998;29;20048;-79
2021/03/10 02:11:09;;;;;;;52.05;24.80;;;6.80;99.00;;;;;;4804452;29;20054;-78
2021/03/10 02:13:56;;;;;;;55.08;24.40;;;6.80;99.30;;;;;;4820846;29;20103;-79
2021/03/10 02:16:38;;;;;;;50.92;25.17;;;6.80;99.20;;;;;;4820601;29;20070;-78
2021/03/10 02:19:13;;;;;;;49.92;23.92;;;6.80;99.00;;;;;;4821027;29;20486;-80
2021/03/10 02:21:56;;;;;;;55.10;24.58;;;6.80;98.90;;;;;;4820756;29;20068;-80
2021/03/10 02:24:28;;;;;;;56.35;26.05;;;6.70;98.90;;;;;;4820737;29;20438;-78
2021/03/10 02:27:31;;;;;;;58.35;26.17;;;6.80;98.90;;;;;;4806106;29;20121;-78
2021/03/10 02:30:05;;;;;;;52.25;24.67;;;6.90;99.00;;;;;;4821290;29;20592;-78
2021/03/10 02:32:34;;;;;;;51.42;24.45;;;6.80;98.80;;;;;;4820623;29;20552;-78
2021/03/10 02:35:03;;;;;;;52.00;26.30;;;6.80;98.80;;;;;;4820349;29;20054;-79
2021/03/10 02:37:29;;;;;;;58.65;26.30;;;6.80;98.70;;;;;;4820673;29;20053;-79
2021/03/10 02:39:56;;;;;;;49.03;24.20;;;6.80;98.70;;;;;;4804499;29;20043;-78
2021/03/10 02:42:22;;;;;;;63.20;26.73;;;6.80;98.90;;;;;;4820369;29;20026;-80
2021/03/10 02:44:48;;;;;;;57.95;26.48;;;6.80;98.90;;;;;;4821970;29;20389;-80
2021/03/10 02:47:14;;;;;;;57.40;26.20;;;6.80;98.90;;;;;;4820398;29;20046;-79
2021/03/10 02:49:40;;;;;;;56.67;26.23;;;6.70;98.80;;;;;;4820383;29;20082;-79
2021/03/10 02:52:08;;;;;;;54.85;26.20;;;6.70;98.90;;;;;;4820617;29;20038;-79
2021/03/10 02:54:36;;;;;;;58.03;26.88;;;6.80;99.00;;;;;;4820632;29;20043;-79
2021/03/10 02:57:03;;;;;;;58.53;27.55;;;6.90;99.00;;;;;;4821948;29;20057;-80
2021/03/10 02:59:30;;;;;;;60.13;26.75;;;6.80;98.80;;;;;;4804412;29;20081;-79
2021/03/10 03:01:56;;;;;;;62.80;28.30;;;6.70;98.80;;;;;;4820375;29;20051;-79
2021/03/10 03:04:22;;;;;;;62.03;28.35;;;6.70;99.00;;;;;;4822786;29;20131;-79
2021/03/10 03:06:47;;;;;;;58.40;26.25;;;6.70;99.10;;;;;;4823949;29;20053;-79
2021/03/10 03:09:14;;;;;;;61.28;28.48;;;6.60;99.10;;;;;;4824150;29;20035;-79
2021/03/10 03:11:39;;;;;;;60.35;27.17;;;6.70;99.10;;;;;;4825460;29;20043;-79
2021/03/10 03:14:08;;;;;;;61.33;28.85;;;6.60;99.20;;;;;;4823824;29;20046;-79
2021/03/10 03:16:35;;;;;;;56.40;26.63;;;6.70;99.20;;;;;;4823239;29;20461;-78
2021/03/10 03:19:02;;;;;;;61.20;26.83;;;6.80;99.20;;;;;;4823199;29;20073;-79
2021/03/10 03:21:28;;;;;;;62.15;30.00;;;6.80;99.10;;;;;;4823459;29;20118;-78
2021/03/10 03:23:55;;;;;;;62.10;26.27;;;6.80;99.10;;;;;;4809239;29;20486;-79
2021/03/10 03:26:20;;;;;;;59.47;27.60;;;6.70;99.20;;;;;;4807685;29;20413;-79
2021/03/10 03:28:46;;;;;;;66.43;28.50;;;6.80;99.50;;;;;;4823257;29;20038;-80
2021/03/10 03:31:16;;;;;;;61.35;28.77;;;6.90;99.20;;;;;;4807478;29;20053;-79
2021/03/10 03:33:42;;;;;;;65.97;28.45;;;6.80;99.10;;;;;;4823119;29;20122;-79
2021/03/10 03:36:09;;;;;;;62.00;28.05;;;6.80;99.10;;;;;;4823455;29;20041;-78
2021/03/10 03:38:35;;;;;;;56.25;27.55;;;6.70;99.10;;;;;;4824929;29;20027;-78
2021/03/10 03:41:00;;;;;;;61.45;28.65;;;6.80;99.10;;;;;;4823515;29;20073;-78
2021/03/10 03:43:27;;;;;;;62.90;30.45;;;6.70;99.10;;;;;;4823389;29;20030;-78
2021/03/10 03:45:54;;;;;;;63.72;28.52;;;6.70;99.20;;;;;;4823104;29;20355;-79
2021/03/10 03:48:20;;;;;;;61.33;28.60;;;6.70;99.20;;;;;;4822945;29;20029;-79
2021/03/10 03:50:48;;;;;;;64.07;30.55;;;6.80;99.20;;;;;;4808451;29;20091;-79
2021/03/10 03:53:14;;;;;;;63.13;29.88;;;6.80;99.10;;;;;;4822767;29;20073;-79
2021/03/10 03:55:40;;;;;;;66.50;28.88;;;6.70;99.10;;;;;;4806803;29;20498;-78
2021/03/10 03:58:06;;;;;;;60.17;29.15;;;6.80;99.10;;;;;;4823343;29;20334;-80
2021/03/10 04:00:32;;;;;;;61.78;29.85;;;6.80;99.10;;;;;;4823130;29;20102;-79
2021/03/10 04:02:58;;;;;;;69.88;29.65;;;6.80;99.20;;;;;;4824349;29;20041;-78
2021/03/10 04:05:24;;;;;;;66.85;30.63;;;6.90;99.10;;;;;;4822265;29;20062;-78
2021/03/10 04:07:52;;;;;;;62.50;28.83;;;6.70;99.10;;;;;;4822535;29;20062;-80
2021/03/10 04:10:21;;;;;;;65.35;30.17;;;6.80;99.40;;;;;;4822657;29;20068;-80
2021/03/10 04:12:47;;;;;;;59.50;28.45;;;6.80;99.20;;;;;;4822490;29;20041;-80
2021/03/10 04:15:14;;;;;;;63.35;29.08;;;6.90;99.20;;;;;;4806543;29;20042;-78
2021/03/10 04:17:39;;;;;;;76.72;31.55;;;6.80;99.00;;;;;;4808047;29;20046;-79
2021/03/10 04:20:08;;;;;;;73.28;31.27;;;6.80;98.80;;;;;;4806381;29;20042;-79
2021/03/10 04:22:34;;;;;;;71.10;30.65;;;6.80;98.90;;;;;;4822108;29;20415;-79
2021/03/10 04:24:59;;;;;;;72.05;31.48;;;6.80;99.00;;;;;;4822141;29;20041;-78
2021/03/10 04:27:25;;;;;;;71.68;31.05;;;6.90;99.10;;;;;;4822086;29;20042;-80
2021/03/10 04:29:50;;;;;;;68.75;30.10;;;6.80;99.10;;;;;;4823733;29;20038;-79
2021/03/10 04:32:16;;;;;;;73.97;29.95;;;6.80;99.10;;;;;;4822267;29;20038;-80
2021/03/10 04:34:42;;;;;;;68.25;30.67;;;6.90;99.00;;;;;;4821963;29;20043;-79
2021/03/10 04:37:07;;;;;;;67.68;31.08;;;6.90;99.00;;;;;;4805880;29;20050;-80
2021/03/10 04:39:33;;;;;;;69.22;30.25;;;6.90;98.90;;;;;;4822038;29;20062;-79
2021/03/10 04:41:58;;;;;;;64.55;28.77;;;6.90;99.00;;;;;;4807576;29;20031;-78
2021/03/10 04:44:24;;;;;;;70.38;29.00;;;6.80;99.00;;;;;;4821582;29;20042;-79
2021/03/10 04:46:49;;;;;;;69.78;30.25;;;6.80;99.10;;;;;;4822122;29;20053;-80
2021/03/10 04:49:15;;;;;;;71.13;30.10;;;6.70;99.20;;;;;;4821853;29;20114;-79
2021/03/10 04:51:40;;;;;;;68.82;29.60;;;6.70;99.20;;;;;;4821853;29;20038;-79
2021/03/10 04:54:06;;;;;;;79.03;32.40;;;6.70;99.20;;;;;;4821796;29;20465;-77
2021/03/10 04:56:32;;;;;;;76.05;31.15;;;6.70;99.20;;;;;;4823382;29;20144;-80
2021/03/10 04:58:57;;;;;;;71.43;29.08;;;6.80;99.30;;;;;;4821852;29;20038;-79
2021/03/10 05:01:23;;;;;;;68.32;28.92;;;6.80;99.10;;;;;;4821706;29;20170;-80
2021/03/10 05:03:48;;;;;;;71.97;29.88;;;6.80;99.00;;;;;;4821797;29;20051;-79
2021/03/10 05:06:14;;;;;;;68.25;28.30;;;6.80;99.00;;;;;;4821685;29;20091;-78
2021/03/10 05:08:39;;;;;;;76.10;30.65;;;6.70;99.00;;;;;;4823440;29;20034;-78
2021/03/10 05:11:05;;;;;;;72.07;30.67;;;6.90;99.20;;;;;;4805672;29;20625;-78
2021/03/10 05:13:30;;;;;;;74.22;30.42;;;6.90;99.00;;;;;;4821487;29;20361;-79
2021/03/10 05:15:56;;;;;;;77.70;30.52;;;7.00;99.00;;;;;;4821491;29;20485;-81
2021/03/10 05:18:21;;;;;;;67.80;29.77;;;7.00;98.90;;;;;;4805730;29;20118;-77
2021/03/10 05:20:47;;;;;;;75.13;29.08;;;7.00;98.90;;;;;;4823163;29;20101;-78
2021/03/10 05:23:12;;;;;;;71.32;29.27;;;7.00;99.00;;;;;;4821510;29;20485;-76
2021/03/10 05:25:38;;;;;;;71.30;28.55;;;6.90;99.00;;;;;;4821183;29;20038;-77
2021/03/10 05:28:04;;;;;;;70.75;29.42;;;6.90;99.10;;;;;;4805187;29;20046;-79
2021/03/10 05:30:29;;;;;;;65.80;28.42;;;6.80;99.00;;;;;;4821228;29;20035;-80
2021/03/10 05:32:55;;;;;;;72.28;29.65;;;6.90;98.90;;;;;;4822705;29;20034;-79
2021/03/10 05:35:21;;;;;;;68.32;28.08;;;6.90;99.00;;;;;;4805238;29;20121;-79
2021/03/10 05:37:46;;;;;;;68.47;28.08;;;6.80;98.90;;;;;;4805282;29;20046;-79
2021/03/10 05:40:12;;;;;;;68.20;28.17;;;6.80;98.80;;;;;;4821213;29;20050;-80
2021/03/10 05:42:40;;;;;;;68.90;29.08;;;6.90;98.90;;;;;;4820874;29;20121;-78
2021/03/10 05:45:07;;;;;;;66.07;26.15;;;6.90;98.80;;;;;;4822748;29;20063;-78
2021/03/10 05:47:32;;;;;;;67.10;27.95;;;6.90;98.70;;;;;;4821880;29;20042;-80
2021/03/10 05:49:58;;;;;;;69.28;27.67;;;6.90;98.70;;;;;;4821204;29;20048;-79
2021/03/10 05:52:23;;;;;;;67.75;28.33;;;6.80;98.80;;;;;;4821157;29;20126;-79
2021/03/10 05:54:51;;;;;;;67.57;27.00;;;6.90;98.70;;;;;;4804847;29;20126;-79
2021/03/10 05:57:17;;;;;;;71.03;28.20;;;6.80;98.90;;;;;;4820989;29;20058;-79
2021/03/10 05:59:44;;;;;;;74.38;30.27;;;6.80;98.70;;;;;;4822730;29;20184;-82
2021/03/10 06:02:10;;;;;;;65.10;27.08;;;6.90;98.60;;;;;;4821583;29;20490;-79
2021/03/10 06:04:40;;;;;;;64.07;26.90;;;6.80;98.70;;;;;;4821285;29;20265;-78
2021/03/10 06:07:18;;;;;;;62.70;27.27;;;7.00;98.90;;;;;;4821389;29;20046;-79
2021/03/10 06:09:56;;;;;;;63.00;27.42;;;7.00;98.60;;;;;;4821369;29;20034;-78
2021/03/10 06:12:22;;;;;;;70.55;28.88;;;6.90;98.70;;;;;;4821079;29;20413;-78
2021/03/10 06:14:59;;;;;;;73.70;28.25;;;7.00;98.50;;;;;;4822317;29;20492;-79
2021/03/10 06:17:24;;;;;;;75.50;30.37;;;7.10;98.60;;;;;;4820600;29;20066;-80
2021/03/10 06:19:51;;;;;;;67.13;28.92;;;7.10;98.70;;;;;;4820866;29;20760;-80
2021/03/10 06:22:17;;;;;;;70.55;30.42;;;7.10;98.80;;;;;;4820909;29;20034;-86
2021/03/10 06:24:43;;;;;;;70.30;28.58;;;7.10;98.80;;;;;;4820365;29;20035;-78
2021/03/10 06:27:09;;;;;;;72.28;29.55;;;7.10;98.90;;;;;;4820711;29;20023;-79
2021/03/10 06:29:36;;;;;;;69.18;29.42;;;7.10;98.70;;;;;;4822141;29;20090;-79
2021/03/10 06:32:09;;;;;;;72.38;30.85;;;7.10;98.70;;;;;;4804117;29;20137;-77
2021/03/10 06:34:49;;;;;;;73.53;30.88;;;7.10;98.60;;;;;;4820380;29;20377;-77
2021/03/10 06:37:25;;;;;;;69.93;30.50;;;7.10;98.70;;;;;;4820453;29;20389;-79
2021/03/10 06:39:51;;;;;;;72.40;30.67;;;7.20;98.70;;;;;;4823762;29;20031;-78
2021/03/10 06:42:18;;;;;;;75.35;29.60;;;7.20;98.70;;;;;;4823980;29;20510;-77
2021/03/10 06:44:53;;;;;;;68.90;30.58;;;7.10;98.40;;;;;;4825439;29;20027;-77
2021/03/10 06:47:19;;;;;;;62.42;28.50;;;7.10;98.30;;;;;;4823811;29;20043;-79
2021/03/10 06:49:51;;;;;;;63.78;28.60;;;7.10;98.40;;;;;;4823745;29;20553;-77
2021/03/10 06:52:17;;;;;;;63.53;29.42;;;7.10;98.30;;;;;;4807464;29;20038;-79
2021/03/10 06:54:56;;;;;;;68.50;30.05;;;7.00;98.30;;;;;;4823597;29;20448;-78
2021/03/10 06:57:23;;;;;;;61.30;28.23;;;6.90;98.20;;;;;;4823649;29;20031;-77
2021/03/10 06:59:54;;;;;;;67.10;29.42;;;7.20;98.20;;;;;;4825081;29;20411;-77
2021/03/10 07:02:24;;;;;;;74.53;29.83;;;7.20;98.10;;;;;;4823971;29;20038;-78
2021/03/10 07:04:55;;;;;;;65.60;28.73;;;7.10;98.10;;;;;;4814169;29;20355;-78
2021/03/10 07:07:22;;;;;;;63.55;29.20;;;7.10;98.00;;;;;;4807176;29;20051;-79
2021/03/10 07:09:47;;;;;;;63.88;29.20;;;7.10;98.10;;;;;;4790080;29;20041;-78
2021/03/10 07:12:15;;;;;;;60.90;27.48;;;7.20;98.00;;;;;;4806194;29;20034;-77
2021/03/10 07:14:41;;;;;;;62.45;27.10;;;7.40;97.80;;;;;;4807882;29;20113;-78
2021/03/10 07:17:11;;;;;;;59.13;27.35;;;7.30;97.50;;;;;;4806219;29;20047;-78
2021/03/10 07:19:37;;;;;;;56.47;27.38;;;7.30;97.40;;;;;;4806092;29;20413;-77
2021/03/10 07:22:31;;;;;;;54.47;24.77;;;7.30;97.40;;;;;;4806132;29;20094;-77
2021/03/10 07:25:07;;;;;;;58.85;26.58;;;7.30;97.10;;;;;;4801140;29;20035;-77
2021/03/10 07:27:50;;;;;;;49.83;24.23;;;7.30;97.10;;;;;;4806913;29;20042;-78
2021/03/10 07:30:16;;;;;;;51.15;25.13;;;7.20;96.80;;;;;;4806545;29;20062;-79
2021/03/10 07:32:41;;;;;;;51.28;25.05;;;7.20;96.70;;;;;;4807303;29;20490;-79
2021/03/10 07:35:10;;;;;;;62.75;25.65;;;7.20;96.70;;;;;;4805929;29;20057;-80
2021/03/10 07:37:51;;;;;;;63.72;26.10;;;7.40;96.60;;;;;;4805918;29;20043;-80
2021/03/10 07:40:17;;;;;;;57.22;26.15;;;7.50;96.60;;;;;;4806303;29;20458;-86
2021/03/10 07:42:53;;;;;;;58.78;27.27;;;7.60;97.40;;;;;;4790486;29;20051;-79
2021/03/10 07:45:20;;;;;;;61.10;27.40;;;7.60;97.80;;;;;;4822676;29;20031;-78
2021/03/10 07:47:57;;;;;;;57.55;26.73;;;7.50;97.40;;;;;;4808260;29;20041;-78
2021/03/10 07:50:37;;;;;;;63.88;26.60;;;7.50;96.90;;;;;;4821979;29;20046;-77
2021/03/10 07:53:02;;;;;;;59.28;27.90;;;7.50;97.00;;;;;;4806611;29;20061;-77
2021/03/10 07:55:28;;;;;;;64.53;27.83;;;7.40;97.30;;;;;;4806532;29;20042;-77
2021/03/10 07:57:55;;;;;;;58.72;27.13;;;7.50;97.70;;;;;;4822898;29;20405;-78
2021/03/10 08:00:32;;;;;;;57.15;27.20;;;7.60;97.70;;;;;;4822630;29;20034;-77
2021/03/10 08:02:58;;;;;;;55.35;26.35;;;7.60;97.50;;;;;;4823853;29;20031;-78
2021/03/10 08:05:26;;;;;;;55.58;25.02;;;7.70;97.40;;;;;;4806350;29;20119;-77
2021/03/10 08:08:14;;;;;;;62.63;29.02;;;7.80;97.30;;;;;;4822323;29;20038;-82
2021/03/10 08:10:41;;;;;;;;;;;7.70;97.60;;;;;;4822912;29;20446;-78
2021/03/10 08:13:17;;;;;;;53.08;26.08;;;7.80;97.70;;;;;;4822951;29;19920;-78
2021/03/10 08:15:43;;;;;;;55.80;25.58;;;7.90;97.00;;;;;;4823010;29;20038;-79
2021/03/10 08:18:09;;;;;;;51.05;25.80;;;7.90;96.60;;;;;;4806995;29;20041;-77
2021/03/10 08:20:36;;;;;;;53.22;24.10;;;7.90;96.70;;;;;;4823999;29;20405;-77
2021/03/10 08:23:03;;;;;;;47.90;24.38;;;7.90;96.50;;;;;;4822302;29;20079;-78
2021/03/10 08:25:29;;;;;;;48.72;23.92;;;8.00;96.20;;;;;;4822525;29;20042;-77
2021/03/10 08:27:54;;;;;;;48.78;23.58;;;8.00;96.00;;;;;;4806084;29;20114;-78
2021/03/10 08:30:25;;;;;;;47.30;24.05;;;8.00;95.70;;;;;;4821881;29;20042;-79
2021/03/10 08:32:51;;;;;;;49.05;25.17;;;8.10;96.00;;;;;;4823770;29;20041;-79
2021/03/10 08:35:20;;;;;;;49.47;25.27;;;8.20;96.00;;;;;;4821665;29;20042;-78
2021/03/10 08:37:59;;;;;;;52.13;26.52;;;8.20;96.00;;;;;;4805875;29;20102;-78
2021/03/10 08:40:28;;;;;;;64.25;25.77;;;8.30;96.00;;;;;;4822147;29;20066;-79
2021/03/10 08:42:55;;;;;;;61.03;30.83;;;8.30;96.10;;;;;;4821663;29;20031;-79
2021/03/10 08:45:36;;;;;;;63.87;30.07;;;8.50;95.90;;;;;;4822013;29;20114;-78
2021/03/10 08:48:04;;;;;;;52.35;24.95;;;8.40;95.90;;;;;;4823560;29;20291;-78
2021/03/10 08:50:30;;;;;;;;;;;8.40;95.80;;;;;;4822258;29;20042;-77
2021/03/10 08:52:56;;;;;;;47.55;22.88;;;8.40;95.50;;;;;;4821788;29;19916;-78
2021/03/10 08:55:25;;;;;;;47.13;23.58;;;8.50;95.20;;;;;;4821809;29;20122;-78
2021/03/10 08:57:51;;;;;;;49.42;24.63;;;8.60;95.00;;;;;;4821871;29;20362;-78
2021/03/10 09:00:22;;;;;;;48.63;24.88;;;8.60;94.80;;;;;;4821286;29;20059;-77
2021/03/10 09:02:50;;;;;;;50.83;25.65;;;8.70;94.90;;;;;;4822892;29;20101;-76
2021/03/10 09:05:17;;;;;;;47.60;23.67;;;8.80;94.60;;;;;;4805094;29;20065;-76
2021/03/10 09:07:46;;;;;;;49.00;25.23;;;9.00;94.60;;;;;;4821447;29;20065;-78
2021/03/10 09:10:18;;;;;;;49.40;24.30;;;9.10;94.30;;;;;;4821226;29;20102;-76
2021/03/10 09:12:47;;;;;;;45.22;22.83;;;9.30;94.20;;;;;;4821173;29;20585;-76
2021/03/10 09:15:32;;;;;;;45.78;22.80;;;9.40;93.40;;;;;;4820701;29;20090;-77
2021/03/10 09:18:06;;;;;;;44.78;23.33;;;9.60;92.90;;;;;;4823007;29;20054;-76
2021/03/10 09:20:34;;;;;;;43.80;23.73;;;9.60;92.90;;;;;;4821581;29;20131;-77
2021/03/10 09:23:00;;;;;;;47.20;24.10;;;9.70;92.50;;;;;;4821387;29;20489;-77
2021/03/10 09:25:34;;;;;;;45.15;23.83;;;9.70;92.30;;;;;;4821512;29;20289;-79
2021/03/10 09:28:11;;;;;;;44.30;22.63;;;9.80;92.30;;;;;;4821297;29;20038;-77
2021/03/10 09:30:54;;;;;;;46.03;24.05;;;9.80;92.10;;;;;;4821174;29;20058;-77
2021/03/10 09:33:21;;;;;;;45.80;23.50;;;9.90;92.10;;;;;;4821469;29;20044;-76
2021/03/10 09:35:55;;;;;;;45.42;22.25;;;10.00;91.10;;;;;;4806594;29;20031;-78
2021/03/10 09:38:22;;;;;;;44.53;23.67;;;10.00;90.60;;;;;;4821304;29;20438;-78
2021/03/10 09:40:58;;;;;;;40.55;21.83;;;9.90;91.50;;;;;;4820994;29;20039;-78
2021/03/10 09:43:27;;;;;;;41.50;21.85;;;9.80;91.20;;;;;;4821247;29;20541;-79
2021/03/10 09:45:59;;;;;;;46.95;23.00;;;9.50;91.10;;;;;;4804535;29;20042;-79
2021/03/10 09:48:33;;;;;;;43.65;23.05;;;9.50;91.10;;;;;;4821148;29;20026;-78
2021/03/10 09:51:06;;;;;;;44.45;23.75;;;9.50;91.30;;;;;;4822852;29;20057;-77
2021/03/10 09:53:33;;;;;;;44.15;22.30;;;9.60;91.50;;;;;;4821318;29;20073;-76
2021/03/10 09:56:28;;;;;;;45.75;22.80;;;9.60;91.60;;;;;;4821119;29;20054;-80
2021/03/10 09:58:55;;;;;;;45.38;22.45;;;9.70;91.60;;;;;;4808455;29;20462;-78
2021/03/10 10:01:25;;;;;;;40.92;22.05;;;9.90;91.20;;;;;;4820646;29;20142;-81
2021/03/10 10:03:52;;;;;;;35.45;19.55;;;10.00;90.60;;;;;;4820706;29;20493;-79
2021/03/10 10:06:19;;;;;;;38.15;19.88;;;10.10;89.40;;;;;;4820428;29;20026;-79
2021/03/10 10:08:46;;;;;;;41.50;20.85;;;10.10;89.30;;;;;;4822401;29;20223;-79
2021/03/10 10:11:13;;;;;;;36.00;19.85;;;10.20;89.50;;;;;;4820940;29;20044;-78
2021/03/10 10:13:42;;;;;;;36.65;19.73;;;10.20;89.80;;;;;;4820349;29;20102;-78
2021/03/10 10:16:10;;;;;;;43.00;21.15;;;10.50;88.60;;;;;;4820494;29;20046;-78
2021/03/10 10:18:35;;;;;;;39.07;19.30;;;10.40;88.20;;;;;;4820596;29;20041;-78
2021/03/10 10:21:02;;;;;;;35.95;18.75;;;10.40;87.30;;;;;;4822206;29;20026;-77
2021/03/10 10:23:28;;;;;;;35.90;20.20;;;10.30;86.90;;;;;;4820515;29;20061;-79
2021/03/10 10:25:54;;;;;;;37.15;19.85;;;10.40;87.90;;;;;;4820736;29;20358;-80
2021/03/10 10:28:21;;;;;;;43.80;23.05;;;10.40;87.80;;;;;;4820024;29;20451;-78
2021/03/10 10:30:46;;;;;;;47.05;21.67;;;10.30;88.10;;;;;;4803902;29;20034;-78
2021/03/10 10:33:12;;;;;;;40.80;21.90;;;10.50;88.00;;;;;;4820327;29;20049;-79
2021/03/10 10:35:37;;;;;;;41.13;20.45;;;10.40;86.80;;;;;;4821919;29;20046;-78
2021/03/10 10:38:03;;;;;;;34.92;18.52;;;10.40;87.30;;;;;;4819912;29;20057;-77
2021/03/10 10:40:29;;;;;;;32.58;16.63;;;10.40;84.90;;;;;;4820199;29;20030;-77
2021/03/10 10:42:54;;;;;;;34.60;18.23;;;10.50;84.00;;;;;;4820335;29;20038;-77
2021/03/10 10:45:20;;;;;;;30.55;16.25;;;10.60;84.10;;;;;;4820228;29;20037;-78
2021/03/10 10:47:46;;;;;;;34.28;18.42;;;10.60;83.90;;;;;;4805357;29;20038;-76
2021/03/10 10:50:13;;;;;;;30.02;17.02;;;10.70;84.50;;;;;;4819683;29;20069;-78
2021/03/10 10:52:39;;;;;;;31.55;18.45;;;10.70;83.50;;;;;;4819923;29;20056;-77
2021/03/10 10:55:09;;;;;;;36.45;19.30;;;10.70;83.40;;;;;;4819758;29;20038;-77
2021/03/10 10:57:38;;;;;;;34.97;17.60;;;10.80;83.00;;;;;;4819688;29;20369;-78
2021/03/10 11:00:09;;;;;;;31.02;17.08;;;10.90;82.70;;;;;;4821632;29;20034;-76
2021/03/10 11:02:36;;;;;;;36.35;18.90;;;10.90;82.10;;;;;;4804122;29;20042;-77
2021/03/10 11:05:02;;;;;;;31.67;18.52;;;10.80;83.30;;;;;;4803582;29;20166;-78
2021/03/10 11:07:27;;;;;;;31.88;17.77;;;10.90;84.00;;;;;;4819822;29;20676;-77
2021/03/10 11:09:53;;;;;;;31.67;17.92;;;11.30;83.60;;;;;;4819968;29;20207;-77
2021/03/10 11:12:19;;;;;;;33.42;18.70;;;11.60;82.20;;;;;;4820020;29;20145;-80
2021/03/10 11:14:45;;;;;;;35.33;18.70;;;11.60;82.00;;;;;;4821206;29;20109;-78
2021/03/10 11:17:10;;;;;;;37.65;20.30;;;11.60;81.50;;;;;;4819929;29;20171;-79
2021/03/10 11:19:38;;;;;;;34.55;18.58;;;11.30;80.90;;;;;;4820114;29;20126;-77
2021/03/10 11:22:04;;;;;;;33.15;18.13;;;11.10;81.10;;;;;;4820350;29;20141;-77
2021/03/10 11:24:30;;;;;;;35.97;18.65;;;11.30;82.00;;;;;;4820948;29;20125;-78
2021/03/10 11:26:55;;;;;;;33.53;18.20;;;11.40;82.40;;;;;;4808652;29;20125;-78
2021/03/10 11:29:22;;;;;;;31.67;18.35;;;11.50;80.70;;;;;;4823273;29;20111;-77
2021/03/10 11:31:47;;;;;;;44.58;21.38;;;11.50;79.80;;;;;;4823422;29;20038;-74
2021/03/10 11:34:13;;;;;;;33.38;17.55;;;11.30;79.80;;;;;;4823007;29;20644;-75
2021/03/10 11:36:39;;;;;;;30.75;17.92;;;11.00;80.80;;;;;;4823325;29;20058;-76
2021/03/10 11:39:05;;;;;;;28.15;16.63;;;10.90;81.30;;;;;;4824423;29;20050;-76
2021/03/10 11:41:34;;;;;;;24.88;14.68;;;10.80;80.00;;;;;;4823002;29;20091;-74
2021/03/10 11:44:00;;;;;;;25.13;15.15;;;10.80;81.10;;;;;;4822506;29;20366;-78
2021/03/10 11:46:25;;;;;;;26.13;15.60;;;10.90;82.50;;;;;;4806627;29;20134;-79
2021/03/10 11:48:51;;;;;;;29.17;15.68;;;11.10;82.10;;;;;;4806958;29;20442;-80
2021/03/10 11:51:17;;;;;;;26.02;14.73;;;11.20;82.10;;;;;;4823057;29;20026;-81
2021/03/10 11:53:43;;;;;;;33.65;17.23;;;11.30;80.40;;;;;;4824200;29;20114;-78
2021/03/10 11:56:09;;;;;;;30.85;17.13;;;11.10;78.80;;;;;;4821954;29;20082;-79
2021/03/10 11:58:34;;;;;;;31.67;17.30;;;11.10;79.30;;;;;;4822302;29;20398;-78
2021/03/10 12:01:00;;;;;;;30.73;16.50;;;11.10;78.80;;;;;;4822954;29;20068;-78
2021/03/10 12:03:25;;;;;;;31.55;15.85;;;11.10;77.70;;;;;;4822201;29;20050;-78
2021/03/10 12:05:51;;;;;;;27.35;15.02;;;11.00;78.00;;;;;;4808280;29;20057;-78
2021/03/10 12:08:17;;;;;;;32.55;16.25;;;11.10;78.00;;;;;;4822521;29;20042;-78
2021/03/10 12:10:42;;;;;;;33.30;17.55;;;11.10;77.80;;;;;;4822507;29;20115;-78
2021/03/10 12:13:09;;;;;;;38.88;17.73;;;11.20;77.90;;;;;;4822532;29;20050;-78
2021/03/10 12:15:35;;;;;;;31.45;18.13;;;11.20;77.50;;;;;;4822431;29;20492;-78
2021/03/10 12:18:01;;;;;;;34.00;18.38;;;11.30;77.10;;;;;;4823787;29;20194;-79
2021/03/10 12:20:26;;;;;;;28.67;16.95;;;11.20;77.80;;;;;;4806098;29;20137;-77
2021/03/10 12:22:52;;;;;;;30.88;17.10;;;11.10;77.30;;;;;;4806066;29;20042;-77
2021/03/10 12:25:18;;;;;;;32.05;17.20;;;11.10;77.50;;;;;;4822185;29;20115;-77
2021/03/10 12:27:44;;;;;;;29.77;17.08;;;11.30;77.40;;;;;;4822299;29;20495;-78
2021/03/10 12:30:10;;;;;;;29.73;16.80;;;11.50;77.00;;;;;;4805824;29;20453;-77
2021/03/10 12:32:37;;;;;;;33.95;16.67;;;11.40;76.20;;;;;;4823497;29;20036;-78
2021/03/10 12:35:04;;;;;;;33.90;16.53;;;11.40;76.50;;;;;;4821965;29;20110;-78
2021/03/10 12:37:30;;;;;;;32.63;16.80;;;11.40;76.40;;;;;;4805711;29;20258;-77
2021/03/10 12:39:56;;;;;;;30.85;17.88;;;11.30;76.30;;;;;;4806021;29;20521;-77